Time;durP1;ratioP1;P1;durP2;ratioP2;P2;SDS_P1;SDS_P2;PMS_P1;PMS_P2;Temp;Humidity;BMP_temperature;BMP_pressure;BME280_temperature;BME280_humidity;BME280_pressure;Samples;Min_cycle;Max_cycle;Signal;HPM_P1;HPM_P2
2022/03/26 00:02:26;;;;;;;30.38;16.67;;;4.50;99.90;;;;;;4997915;28;20137;-66
2022/03/26 00:04:52;;;;;;;32.88;16.85;;;4.50;99.90;;;;;;4998086;28;20054;-66
2022/03/26 00:07:18;;;;;;;36.45;17.75;;;4.60;99.90;;;;;;4978446;28;20051;-66
2022/03/26 00:09:43;;;;;;;36.25;18.48;;;4.50;99.90;;;;;;4978926;28;20130;-66
2022/03/26 00:12:09;;;;;;;36.97;19.33;;;4.50;99.90;;;;;;4978342;28;20053;-66
2022/03/26 00:14:34;;;;;;;36.85;20.02;;;4.50;99.90;;;;;;4979156;28;20500;-66
2022/03/26 00:17:00;;;;;;;39.95;21.23;;;4.50;99.90;;;;;;4974256;28;20051;-66
2022/03/26 00:19:27;;;;;;;42.75;23.02;;;4.40;99.90;;;;;;4976695;28;20094;-66
2022/03/26 00:21:52;;;;;;;42.78;22.27;;;4.50;99.90;;;;;;4988525;28;20054;-65
2022/03/26 00:24:18;;;;;;;41.97;22.25;;;4.40;99.90;;;;;;4984905;28;20061;-66
2022/03/26 00:26:44;;;;;;;43.03;21.95;;;4.40;99.90;;;;;;4984105;28;20051;-66
2022/03/26 00:29:09;;;;;;;37.63;19.10;;;4.40;99.90;;;;;;4988318;28;20168;-66
2022/03/26 00:31:37;;;;;;;39.20;20.55;;;4.40;99.90;;;;;;5010116;28;20398;-67
2022/03/26 00:34:03;;;;;;;30.80;17.40;;;4.40;99.90;;;;;;4994162;28;20097;-66
2022/03/26 00:36:29;;;;;;;31.30;18.13;;;4.40;99.90;;;;;;4994249;28;20046;-66
2022/03/26 00:38:54;;;;;;;28.98;16.00;;;4.40;99.90;;;;;;4993531;28;20176;-66
2022/03/26 00:41:20;;;;;;;30.85;16.42;;;4.40;99.90;;;;;;4994191;28;20065;-66
2022/03/26 00:43:46;;;;;;;27.23;16.05;;;4.40;99.90;;;;;;4995201;28;20497;-66
2022/03/26 00:46:12;;;;;;;27.50;14.82;;;4.30;99.90;;;;;;4993821;28;20043;-65
2022/03/26 00:48:38;;;;;;;26.50;15.82;;;4.30;99.90;;;;;;4982915;28;20500;-66
2022/03/26 00:51:03;;;;;;;28.33;14.73;;;4.30;99.90;;;;;;4993328;28;20113;-66
2022/03/26 00:53:29;;;;;;;28.13;15.50;;;4.30;99.90;;;;;;4994468;28;20062;-66
2022/03/26 00:55:54;;;;;;;24.83;15.02;;;4.20;99.90;;;;;;4993164;28;20138;-66
2022/03/26 00:58:20;;;;;;;29.77;14.57;;;4.20;99.90;;;;;;5009942;28;20042;-66
2022/03/26 01:00:48;;;;;;;29.48;15.05;;;4.20;99.90;;;;;;4994438;28;20491;-66
2022/03/26 01:03:16;;;;;;;28.98;16.27;;;4.20;99.90;;;;;;4990092;28;20055;-66
2022/03/26 01:05:43;;;;;;;24.65;14.40;;;4.10;99.90;;;;;;4994055;28;20058;-66
2022/03/26 01:08:08;;;;;;;26.40;15.98;;;4.10;99.90;;;;;;4993832;28;20069;-66
2022/03/26 01:10:34;;;;;;;25.27;15.60;;;4.10;99.90;;;;;;4994255;28;20141;-66
2022/03/26 01:13:00;;;;;;;29.42;16.08;;;4.10;99.90;;;;;;4993655;28;20490;-66
2022/03/26 01:15:26;;;;;;;32.00;14.80;;;4.00;99.90;;;;;;4994450;28;20046;-66
2022/03/26 01:17:52;;;;;;;31.85;17.35;;;4.00;99.90;;;;;;4983792;28;20495;-67
2022/03/26 01:20:18;;;;;;;31.02;16.60;;;4.00;99.90;;;;;;4989361;28;20057;-66
2022/03/26 01:22:44;;;;;;;37.95;17.40;;;3.90;99.90;;;;;;4994798;28;20053;-66
2022/03/26 01:25:11;;;;;;;37.50;18.08;;;3.90;99.90;;;;;;4993410;28;20055;-66
2022/03/26 01:27:37;;;;;;;34.42;18.20;;;3.90;99.90;;;;;;4992357;28;20122;-66
2022/03/26 01:30:03;;;;;;;32.38;17.95;;;3.90;99.90;;;;;;4994755;28;20129;-66
2022/03/26 01:32:29;;;;;;;40.20;19.10;;;3.90;99.90;;;;;;4991581;28;20174;-66
2022/03/26 01:34:54;;;;;;;32.25;18.83;;;3.80;99.90;;;;;;4995022;28;20455;-66
2022/03/26 01:37:20;;;;;;;31.73;17.33;;;3.80;99.90;;;;;;4994443;28;20129;-66
2022/03/26 01:39:45;;;;;;;39.75;19.83;;;3.80;99.90;;;;;;4994449;28;20101;-66
2022/03/26 01:42:11;;;;;;;34.83;18.23;;;3.80;99.90;;;;;;4993372;28;20050;-66
2022/03/26 01:44:38;;;;;;;31.33;17.70;;;3.80;99.90;;;;;;4993960;28;20514;-66
2022/03/26 01:47:04;;;;;;;38.17;18.30;;;3.70;99.90;;;;;;4993762;28;20482;-66
2022/03/26 01:49:31;;;;;;;35.10;18.98;;;3.70;99.90;;;;;;4992199;28;20487;-66
2022/03/26 01:51:57;;;;;;;32.95;18.85;;;3.70;99.90;;;;;;5009145;28;20054;-66
2022/03/26 01:54:23;;;;;;;40.47;20.98;;;3.60;99.90;;;;;;5009421;28;20101;-66
2022/03/26 01:56:50;;;;;;;38.25;19.77;;;3.60;99.90;;;;;;4993030;28;20069;-66
2022/03/26 01:59:15;;;;;;;36.60;19.30;;;3.60;99.90;;;;;;4993113;28;20058;-66
2022/03/26 02:01:42;;;;;;;41.13;20.20;;;3.60;99.90;;;;;;4993353;28;20388;-66
2022/03/26 02:04:08;;;;;;;39.22;19.98;;;3.60;99.90;;;;;;4987414;28;20057;-66
2022/03/26 02:06:37;;;;;;;36.72;19.73;;;3.50;99.90;;;;;;4992779;28;20163;-66
2022/03/26 02:09:09;;;;;;;41.97;20.90;;;3.50;99.90;;;;;;4994021;28;20144;-66
2022/03/26 02:11:37;;;;;;;38.67;21.08;;;3.50;99.90;;;;;;4979479;28;20495;-67
2022/03/26 02:14:03;;;;;;;42.60;22.33;;;3.50;99.90;;;;;;4994051;28;20093;-66
2022/03/26 02:16:30;;;;;;;41.30;22.80;;;3.50;99.90;;;;;;4992925;28;20459;-67
2022/03/26 02:18:56;;;;;;;43.15;22.38;;;3.50;99.90;;;;;;4991202;28;20106;-65
2022/03/26 02:21:22;;;;;;;43.92;22.38;;;3.40;99.90;;;;;;5005476;28;20055;-66
2022/03/26 02:23:49;;;;;;;45.05;23.38;;;3.40;99.90;;;;;;5008954;28;20081;-66
2022/03/26 02:26:20;;;;;;;38.53;20.92;;;3.40;99.90;;;;;;5009200;28;20058;-66
2022/03/26 02:28:46;;;;;;;49.53;22.30;;;3.40;99.90;;;;;;5005189;28;20157;-65
2022/03/26 02:31:16;;;;;;;46.03;23.65;;;3.30;99.90;;;;;;4982624;28;20050;-66
2022/03/26 02:33:42;;;;;;;54.67;26.63;;;3.40;99.90;;;;;;4993357;28;20065;-66
2022/03/26 02:36:08;;;;;;;50.28;26.27;;;3.30;99.90;;;;;;4993437;28;20129;-66
2022/03/26 02:38:35;;;;;;;47.15;24.30;;;3.20;99.90;;;;;;4992311;28;20141;-66
2022/03/26 02:41:01;;;;;;;51.47;24.90;;;3.20;99.90;;;;;;4993215;28;20527;-66
2022/03/26 02:43:26;;;;;;;58.72;28.30;;;3.20;99.90;;;;;;4992773;28;20133;-66
2022/03/26 02:45:52;;;;;;;55.60;27.13;;;3.10;99.90;;;;;;5005733;28;20059;-66
2022/03/26 02:48:18;;;;;;;57.17;27.13;;;3.00;99.90;;;;;;4985951;28;20054;-66
2022/03/26 02:50:44;;;;;;;53.88;25.67;;;3.00;99.90;;;;;;5005095;28;20051;-66
2022/03/26 02:53:11;;;;;;;51.97;25.60;;;2.90;99.90;;;;;;5007890;28;20050;-66
2022/03/26 02:55:38;;;;;;;58.58;27.33;;;2.90;99.90;;;;;;4993360;28;20089;-66
2022/03/26 02:58:05;;;;;;;61.30;29.55;;;2.90;99.90;;;;;;4992957;28;20106;-66
2022/03/26 03:00:31;;;;;;;60.10;29.58;;;2.90;99.90;;;;;;4993066;28;20101;-67
2022/03/26 03:02:57;;;;;;;56.65;28.50;;;2.90;99.90;;;;;;4993453;28;20058;-66
2022/03/26 03:05:23;;;;;;;62.00;28.50;;;2.90;99.90;;;;;;4989339;28;20069;-66
2022/03/26 03:07:48;;;;;;;62.80;29.20;;;2.90;99.90;;;;;;4992268;28;20054;-67
2022/03/26 03:10:15;;;;;;;52.47;26.45;;;2.80;99.90;;;;;;4993621;28;20054;-67
2022/03/26 03:12:42;;;;;;;66.50;31.63;;;2.90;99.90;;;;;;4991870;28;20499;-66
2022/03/26 03:15:09;;;;;;;60.20;29.70;;;2.80;99.90;;;;;;4992718;28;20050;-66
2022/03/26 03:17:37;;;;;;;63.80;29.88;;;2.80;99.90;;;;;;4993330;28;20062;-65
2022/03/26 03:20:04;;;;;;;60.72;30.23;;;2.80;99.90;;;;;;4993214;28;20058;-66
2022/03/26 03:22:29;;;;;;;66.18;30.50;;;2.80;99.90;;;;;;4986577;28;20047;-66
2022/03/26 03:24:55;;;;;;;59.80;29.88;;;2.80;99.90;;;;;;4988076;28;20215;-65
2022/03/26 03:27:21;;;;;;;61.63;30.65;;;2.80;99.90;;;;;;4990820;28;20130;-66
2022/03/26 03:29:46;;;;;;;71.43;33.38;;;2.80;99.90;;;;;;5004998;28;20054;-66
2022/03/26 03:32:12;;;;;;;75.20;32.58;;;2.70;99.90;;;;;;4991472;28;20057;-66
2022/03/26 03:34:38;;;;;;;74.03;36.10;;;2.70;99.90;;;;;;5008230;28;20066;-66
2022/03/26 03:37:03;;;;;;;67.40;33.38;;;2.70;99.90;;;;;;4987772;28;20054;-65
2022/03/26 03:39:29;;;;;;;76.25;34.55;;;2.70;99.90;;;;;;4991426;28;20089;-66
2022/03/26 03:41:54;;;;;;;71.65;35.28;;;2.70;99.90;;;;;;4990933;28;20065;-66
2022/03/26 03:44:20;;;;;;;78.70;34.33;;;2.70;99.90;;;;;;4992115;28;20058;-66
2022/03/26 03:46:46;;;;;;;70.38;35.60;;;2.70;99.90;;;;;;4991260;28;20502;-66
2022/03/26 03:49:11;;;;;;;76.93;37.00;;;2.80;99.90;;;;;;4991581;28;20078;-65
2022/03/26 03:51:37;;;;;;;79.53;37.58;;;2.70;99.90;;;;;;4995133;28;20046;-66
2022/03/26 03:54:03;;;;;;;80.22;36.53;;;2.70;99.90;;;;;;4994805;28;20058;-65
2022/03/26 03:56:28;;;;;;;79.95;35.90;;;2.70;99.90;;;;;;4995083;28;20054;-66
2022/03/26 03:58:54;;;;;;;72.85;34.75;;;2.60;99.90;;;;;;4994504;28;20064;-66
2022/03/26 04:01:20;;;;;;;68.63;33.05;;;2.70;99.90;;;;;;4994863;28;20121;-66
2022/03/26 04:03:45;;;;;;;81.22;38.50;;;2.60;99.90;;;;;;4996683;28;20061;-66
2022/03/26 04:06:14;;;;;;;87.97;39.78;;;2.70;99.90;;;;;;4995305;28;20490;-65
2022/03/26 04:08:39;;;;;;;82.82;39.60;;;2.60;99.90;;;;;;4996280;28;20058;-65
2022/03/26 04:11:05;;;;;;;82.25;37.88;;;2.60;99.90;;;;;;4995181;28;20409;-65
2022/03/26 04:13:31;;;;;;;80.82;38.75;;;2.60;99.90;;;;;;4994189;28;20050;-66
2022/03/26 04:15:56;;;;;;;81.25;38.67;;;2.60;99.90;;;;;;4994997;28;20138;-66
2022/03/26 04:18:23;;;;;;;77.00;36.88;;;2.60;99.90;;;;;;4995448;28;20062;-66
2022/03/26 04:20:49;;;;;;;74.78;35.90;;;2.60;99.90;;;;;;4994344;28;20112;-64
2022/03/26 04:23:15;;;;;;;74.32;34.47;;;2.60;99.90;;;;;;4986280;28;20061;-66
2022/03/26 04:25:40;;;;;;;76.65;37.30;;;2.60;99.90;;;;;;4995035;28;20046;-66
2022/03/26 04:28:06;;;;;;;73.57;35.05;;;2.60;99.90;;;;;;4994122;28;20054;-66
2022/03/26 04:30:32;;;;;;;76.07;35.83;;;2.60;99.90;;;;;;4996012;28;20058;-65
2022/03/26 04:32:57;;;;;;;84.90;38.50;;;2.60;99.90;;;;;;4994601;28;20046;-67
2022/03/26 04:35:24;;;;;;;83.43;38.05;;;2.50;99.90;;;;;;4995049;28;20180;-65
2022/03/26 04:37:51;;;;;;;83.75;37.22;;;2.50;99.90;;;;;;5007162;28;20054;-66
2022/03/26 04:40:17;;;;;;;76.22;36.15;;;2.50;99.90;;;;;;4989382;28;20050;-65
2022/03/26 04:42:42;;;;;;;80.43;36.50;;;2.40;99.90;;;;;;4994886;28;20418;-66
2022/03/26 04:45:09;;;;;;;79.30;37.38;;;2.40;99.90;;;;;;4994700;28;20383;-66
2022/03/26 04:47:35;;;;;;;84.68;39.38;;;2.40;99.90;;;;;;4994760;28;20050;-65
2022/03/26 04:50:01;;;;;;;82.97;37.03;;;2.40;99.90;;;;;;4995360;28;20470;-66
2022/03/26 04:52:26;;;;;;;76.97;37.25;;;2.30;99.90;;;;;;4979775;28;20414;-65
2022/03/26 04:54:52;;;;;;;80.82;37.42;;;2.40;99.90;;;;;;4994193;28;20042;-65
2022/03/26 04:57:18;;;;;;;82.07;35.85;;;2.30;99.90;;;;;;4994962;28;20093;-66
2022/03/26 04:59:44;;;;;;;79.18;35.80;;;2.30;99.90;;;;;;4994076;28;20175;-65
2022/03/26 05:02:10;;;;;;;76.95;36.72;;;2.30;99.90;;;;;;4976842;28;20054;-65
2022/03/26 05:04:35;;;;;;;81.07;36.40;;;2.30;99.90;;;;;;4994246;28;20057;-65
2022/03/26 05:07:45;;;;;;;84.55;39.78;;;2.30;99.90;;;;;;4977479;28;20051;-65
2022/03/26 05:09:47;;;;;;;86.80;40.22;;;2.30;99.90;;;;;;4994289;28;20058;-65
2022/03/26 05:12:12;;;;;;;85.18;39.28;;;2.30;99.90;;;;;;4993378;28;20104;-65
2022/03/26 05:14:38;;;;;;;84.68;41.15;;;2.30;99.90;;;;;;4994584;28;20455;-66
2022/03/26 05:17:04;;;;;;;83.22;39.17;;;2.30;99.90;;;;;;4994323;28;20058;-66
2022/03/26 05:19:29;;;;;;;84.80;39.15;;;2.30;99.90;;;;;;4993295;28;20349;-66
2022/03/26 05:21:55;;;;;;;84.47;40.10;;;2.30;99.90;;;;;;4994167;28;20046;-65
2022/03/26 05:24:20;;;;;;;90.78;41.13;;;2.30;99.90;;;;;;4977048;28;20062;-65
2022/03/26 05:26:46;;;;;;;81.72;37.47;;;2.30;99.90;;;;;;4992911;28;20058;-65
2022/03/26 05:29:11;;;;;;;84.65;38.85;;;2.20;99.90;;;;;;4993116;28;20046;-66
2022/03/26 05:31:37;;;;;;;81.13;38.30;;;2.20;99.90;;;;;;4993170;28;20414;-65
2022/03/26 05:34:02;;;;;;;94.35;41.25;;;2.20;99.90;;;;;;4993322;28;20411;-66
2022/03/26 05:36:28;;;;;;;81.50;38.40;;;2.20;99.90;;;;;;4993384;28;20050;-65
2022/03/26 05:38:53;;;;;;;96.20;43.03;;;2.20;99.90;;;;;;4993712;28;20453;-66
2022/03/26 05:41:19;;;;;;;86.53;39.55;;;2.20;99.90;;;;;;4993446;28;20057;-65
2022/03/26 05:43:45;;;;;;;89.47;38.65;;;2.20;99.90;;;;;;4994171;28;20056;-65
2022/03/26 05:46:11;;;;;;;90.45;41.78;;;2.20;99.90;;;;;;4976778;28;20057;-66
2022/03/26 05:48:36;;;;;;;90.75;41.40;;;2.30;99.90;;;;;;4986377;28;20054;-66
2022/03/26 05:51:02;;;;;;;86.55;39.97;;;2.30;99.90;;;;;;4992107;28;20112;-65
2022/03/26 05:53:27;;;;;;;87.15;38.97;;;2.30;99.90;;;;;;4992623;28;20038;-65
2022/03/26 05:55:53;;;;;;;82.03;38.28;;;2.30;99.90;;;;;;4992963;28;20057;-65
2022/03/26 05:58:19;;;;;;;86.75;40.67;;;2.40;99.90;;;;;;4976078;28;20053;-65
2022/03/26 06:00:44;;;;;;;80.32;37.92;;;2.40;99.90;;;;;;4992271;28;20057;-66
2022/03/26 06:03:10;;;;;;;83.90;39.17;;;2.50;99.90;;;;;;4982967;28;20046;-65
2022/03/26 06:05:37;;;;;;;81.07;38.25;;;2.60;99.90;;;;;;4992869;28;20056;-65
2022/03/26 06:08:02;;;;;;;89.72;40.65;;;2.60;99.90;;;;;;4992261;28;20112;-65
2022/03/26 06:10:28;;;;;;;87.40;42.72;;;2.60;99.90;;;;;;4992933;28;20058;-66
2022/03/26 06:12:54;;;;;;;95.78;42.35;;;2.70;99.90;;;;;;4989665;28;20054;-65
2022/03/26 06:15:20;;;;;;;94.03;41.45;;;2.80;99.90;;;;;;4979712;28;20050;-65
2022/03/26 06:17:46;;;;;;;95.50;43.58;;;2.80;99.90;;;;;;4984470;28;20058;-65
2022/03/26 06:20:11;;;;;;;90.43;43.10;;;3.00;99.90;;;;;;4992150;28;20133;-66
2022/03/26 06:22:37;;;;;;;90.85;41.63;;;3.00;99.90;;;;;;4978578;28;20381;-65
2022/03/26 06:25:04;;;;;;;91.30;40.88;;;3.10;99.90;;;;;;4991144;28;20053;-65
2022/03/26 06:27:30;;;;;;;91.18;42.92;;;3.20;99.90;;;;;;4992390;28;20411;-65
2022/03/26 06:29:55;;;;;;;105.85;46.67;;;3.30;99.90;;;;;;4991192;28;20047;-66
2022/03/26 06:32:21;;;;;;;103.53;46.97;;;3.50;99.90;;;;;;4980381;28;20054;-66
2022/03/26 06:34:47;;;;;;;131.60;54.70;;;3.60;99.90;;;;;;4989089;28;20114;-65
2022/03/26 06:37:12;;;;;;;121.07;53.97;;;3.80;99.90;;;;;;4994797;28;20130;-65
2022/03/26 06:39:38;;;;;;;123.28;53.42;;;3.90;99.90;;;;;;4974567;28;20050;-66
2022/03/26 06:42:04;;;;;;;127.63;55.20;;;4.10;99.90;;;;;;4990508;28;20050;-65
2022/03/26 06:44:29;;;;;;;119.38;53.67;;;4.10;99.90;;;;;;4990222;28;20133;-65
2022/03/26 06:46:55;;;;;;;113.18;51.55;;;4.30;99.90;;;;;;4987931;28;20439;-66
2022/03/26 06:49:21;;;;;;;120.85;53.47;;;4.40;99.90;;;;;;4980586;28;20048;-65
2022/03/26 06:51:46;;;;;;;119.53;54.35;;;4.60;99.90;;;;;;4991445;28;20042;-66
2022/03/26 06:54:12;;;;;;;117.78;54.08;;;4.70;99.90;;;;;;4990317;28;20046;-65
2022/03/26 06:56:37;;;;;;;124.28;55.00;;;4.80;99.90;;;;;;4990446;28;20065;-66
2022/03/26 06:59:05;;;;;;;128.75;56.63;;;5.00;99.90;;;;;;4980915;28;20050;-66
2022/03/26 07:01:31;;;;;;;132.52;56.75;;;5.10;99.90;;;;;;5005980;28;20053;-65
2022/03/26 07:04:00;;;;;;;127.75;59.10;;;5.30;99.90;;;;;;5009005;28;20470;-66
2022/03/26 07:06:26;;;;;;;123.45;57.55;;;5.60;99.90;;;;;;4996568;28;20056;-65
2022/03/26 07:08:53;;;;;;;125.28;58.47;;;5.60;99.90;;;;;;4996019;28;20410;-66
2022/03/26 07:11:19;;;;;;;130.13;60.45;;;5.90;99.90;;;;;;5001464;28;20560;-66
2022/03/26 07:13:44;;;;;;;122.40;59.65;;;6.00;99.90;;;;;;5007586;28;20085;-65
2022/03/26 07:16:10;;;;;;;123.20;57.42;;;6.10;99.90;;;;;;4999624;28;20043;-65
2022/03/26 07:18:36;;;;;;;116.13;57.60;;;6.30;99.90;;;;;;4987766;28;20137;-65
2022/03/26 07:21:02;;;;;;;113.38;54.72;;;6.40;99.90;;;;;;4986476;28;20054;-65
2022/03/26 07:23:28;;;;;;;121.60;55.22;;;6.70;99.90;;;;;;4982479;28;20364;-65
2022/03/26 07:25:54;;;;;;;111.40;51.70;;;6.80;99.90;;;;;;4994539;28;20050;-65
2022/03/26 07:28:26;;;;;;;110.78;52.78;;;7.00;99.90;;;;;;4994625;28;20084;-66
2022/03/26 07:30:54;;;;;;;108.43;53.80;;;7.10;99.90;;;;;;4990689;28;20108;-66
2022/03/26 07:33:23;;;;;;;105.22;49.85;;;7.20;99.90;;;;;;4967353;28;20506;-65
2022/03/26 07:35:54;;;;;;;108.43;53.70;;;7.30;99.90;;;;;;4991136;28;20105;-67
2022/03/26 07:38:22;;;;;;;101.10;51.60;;;7.50;99.90;;;;;;4995291;28;20179;-67
2022/03/26 07:40:49;;;;;;;105.03;53.90;;;7.60;99.90;;;;;;4993282;28;20415;-65
2022/03/26 07:43:15;;;;;;;104.90;53.50;;;7.70;99.90;;;;;;4993524;28;20050;-67
2022/03/26 07:45:40;;;;;;;111.25;55.35;;;7.90;99.90;;;;;;5002304;28;20065;-66
2022/03/26 07:48:06;;;;;;;104.28;54.33;;;8.00;99.90;;;;;;4987234;28;20058;-65
2022/03/26 07:50:32;;;;;;;89.63;46.78;;;8.20;99.90;;;;;;4977862;28;20150;-67
2022/03/26 07:53:01;;;;;;;93.32;48.13;;;8.40;99.90;;;;;;4983791;28;20082;-66
2022/03/26 07:55:27;;;;;;;97.30;49.58;;;8.60;99.90;;;;;;4988159;28;20097;-66
2022/03/26 07:57:52;;;;;;;90.65;45.30;;;8.70;99.90;;;;;;4992650;28;20050;-65
2022/03/26 08:00:21;;;;;;;81.53;42.38;;;9.00;99.90;;;;;;4993995;28;20054;-66
2022/03/26 08:02:46;;;;;;;78.72;40.08;;;9.00;99.90;;;;;;4984907;28;20050;-66
2022/03/26 08:05:12;;;;;;;86.20;45.65;;;9.20;99.90;;;;;;4987719;28;20059;-66
2022/03/26 08:07:41;;;;;;;88.47;43.65;;;9.30;99.90;;;;;;4976016;28;20054;-66
2022/03/26 08:10:07;;;;;;;77.60;38.70;;;9.50;99.90;;;;;;4986317;28;20057;-66
2022/03/26 08:12:32;;;;;;;84.53;42.92;;;9.60;99.90;;;;;;4994377;28;20046;-67
2022/03/26 08:14:59;;;;;;;78.70;43.03;;;9.70;99.90;;;;;;4994970;28;20096;-65
2022/03/26 08:17:28;;;;;;;75.15;41.15;;;9.90;99.90;;;;;;4993970;28;20510;-66
2022/03/26 08:19:54;;;;;;;78.53;41.55;;;10.10;99.90;;;;;;4995243;28;20122;-66
2022/03/26 08:22:19;;;;;;;75.38;39.90;;;10.20;99.90;;;;;;4996204;28;20050;-66
2022/03/26 08:24:45;;;;;;;77.05;39.60;;;10.40;99.90;;;;;;4995178;28;20046;-67
2022/03/26 08:27:10;;;;;;;71.95;37.67;;;10.50;99.90;;;;;;4994081;28;20125;-67
2022/03/26 08:29:36;;;;;;;64.70;36.05;;;10.70;99.90;;;;;;4995236;28;20497;-66
2022/03/26 08:32:04;;;;;;;78.47;40.28;;;10.80;99.90;;;;;;4995621;28;20061;-66
2022/03/26 08:34:30;;;;;;;69.25;38.10;;;10.90;99.90;;;;;;4988712;28;20043;-66
2022/03/26 08:36:55;;;;;;;66.03;33.63;;;11.00;99.90;;;;;;4984968;28;20113;-66
2022/03/26 08:39:21;;;;;;;64.75;32.60;;;11.20;99.90;;;;;;4983526;28;20117;-66
2022/03/26 08:41:47;;;;;;;63.15;33.25;;;11.30;99.90;;;;;;4986140;28;20101;-67
2022/03/26 08:44:12;;;;;;;60.28;32.33;;;11.50;99.90;;;;;;4985454;28;20495;-66
2022/03/26 08:46:38;;;;;;;65.90;32.25;;;11.70;99.90;;;;;;4983381;28;20066;-66
2022/03/26 08:49:04;;;;;;;65.85;33.03;;;11.80;99.90;;;;;;4991503;28;20050;-66
2022/03/26 08:51:29;;;;;;;66.95;32.30;;;11.90;99.90;;;;;;4994635;28;20422;-65
2022/03/26 08:53:55;;;;;;;58.25;31.10;;;12.00;99.90;;;;;;4995776;28;20077;-66
2022/03/26 08:56:21;;;;;;;59.22;32.28;;;12.20;99.90;;;;;;4987354;28;20065;-67
2022/03/26 08:58:46;;;;;;;61.95;32.42;;;12.30;99.90;;;;;;4983836;28;20490;-66
2022/03/26 09:01:12;;;;;;;60.53;32.10;;;12.50;99.90;;;;;;4990799;28;20116;-66
2022/03/26 09:03:37;;;;;;;56.47;29.08;;;12.60;99.90;;;;;;4993598;28;20116;-66
2022/03/26 09:06:06;;;;;;;60.25;30.17;;;12.80;99.90;;;;;;4994836;28;20086;-66
2022/03/26 09:08:35;;;;;;;57.10;29.42;;;12.90;99.90;;;;;;4994019;28;20130;-66
2022/03/26 09:11:03;;;;;;;50.28;24.88;;;13.00;99.90;;;;;;4994270;28;20521;-66
2022/03/26 09:13:28;;;;;;;44.15;24.63;;;13.20;99.90;;;;;;4993367;28;20403;-66
2022/03/26 09:15:54;;;;;;;43.05;24.17;;;13.30;99.90;;;;;;4994442;28;20049;-67
2022/03/26 09:18:22;;;;;;;51.47;25.77;;;13.40;99.90;;;;;;4993582;28;20498;-66
2022/03/26 09:20:48;;;;;;;50.08;25.02;;;13.50;99.90;;;;;;4994232;28;20482;-66
2022/03/26 09:23:14;;;;;;;48.95;24.30;;;13.60;99.90;;;;;;4992447;28;20081;-67
2022/03/26 09:25:42;;;;;;;50.55;26.35;;;13.70;99.90;;;;;;4984559;28;20045;-67
2022/03/26 09:28:10;;;;;;;48.20;24.73;;;13.80;99.90;;;;;;4985638;28;20130;-68
2022/03/26 09:30:36;;;;;;;45.80;26.80;;;13.90;99.90;;;;;;4981896;28;20125;-66
2022/03/26 09:33:02;;;;;;;45.22;23.75;;;14.00;99.90;;;;;;4971956;28;20129;-66
2022/03/26 09:35:28;;;;;;;43.35;24.13;;;14.10;99.90;;;;;;4990112;28;20062;-65
2022/03/26 09:37:54;;;;;;;45.60;26.40;;;14.20;99.90;;;;;;4968393;28;20038;-66
2022/03/26 09:40:22;;;;;;;47.47;27.13;;;14.20;98.70;;;;;;4986938;28;20050;-67
2022/03/26 09:42:49;;;;;;;42.38;24.27;;;14.20;98.40;;;;;;4984881;28;20055;-66
2022/03/26 09:45:16;;;;;;;40.58;24.65;;;14.30;99.50;;;;;;4982401;28;20474;-66
2022/03/26 09:47:42;;;;;;;41.60;24.73;;;14.40;99.90;;;;;;4988918;28;20061;-67
2022/03/26 09:50:13;;;;;;;43.53;25.00;;;14.50;99.90;;;;;;4986808;28;20050;-67
2022/03/26 09:52:39;;;;;;;41.60;24.20;;;14.50;99.90;;;;;;4986388;28;20063;-67
2022/03/26 09:55:05;;;;;;;43.00;24.30;;;14.70;99.90;;;;;;4981849;28;20492;-67
2022/03/26 09:57:31;;;;;;;39.35;23.33;;;14.80;99.90;;;;;;4983186;28;20053;-66
2022/03/26 10:00:00;;;;;;;42.45;24.70;;;14.90;99.90;;;;;;4984253;28;20127;-68
2022/03/26 10:02:26;;;;;;;39.17;23.38;;;15.00;99.90;;;;;;4982781;28;20050;-66
2022/03/26 10:04:52;;;;;;;36.17;22.58;;;15.20;99.90;;;;;;4977199;28;20058;-67
2022/03/26 10:07:27;;;;;;;34.25;22.58;;;15.20;99.90;;;;;;4991795;28;20066;-67
2022/03/26 10:09:55;;;;;;;34.85;22.10;;;15.20;94.60;;;;;;4993333;28;20125;-68
2022/03/26 10:12:24;;;;;;;31.25;20.98;;;15.30;99.90;;;;;;4992789;28;20120;-68
2022/03/26 10:14:57;;;;;;;29.80;19.50;;;15.30;99.90;;;;;;4976671;28;20058;-67
2022/03/26 10:17:34;;;;;;;33.95;20.30;;;15.40;97.80;;;;;;4993233;28;20042;-67
2022/03/26 10:20:08;;;;;;;28.70;18.20;;;15.50;99.90;;;;;;4993041;28;20125;-67
2022/03/26 10:22:35;;;;;;;27.98;18.58;;;15.60;99.80;;;;;;4993328;28;20054;-69
2022/03/26 10:25:03;;;;;;;27.00;17.20;;;15.70;99.90;;;;;;4992852;28;20487;-66
2022/03/26 10:27:42;;;;;;;32.88;19.63;;;15.70;99.90;;;;;;4984913;28;20073;-67
2022/03/26 10:30:16;;;;;;;31.55;20.60;;;15.80;99.50;;;;;;4982879;28;20121;-66
2022/03/26 10:32:53;;;;;;;30.63;19.23;;;15.90;99.90;;;;;;4973012;28;20051;-67
2022/03/26 10:35:29;;;;;;;23.15;15.43;;;15.90;99.60;;;;;;4993374;28;20121;-66
2022/03/26 10:37:56;;;;;;;22.63;16.45;;;15.90;95.30;;;;;;4976289;28;20097;-67
2022/03/26 10:40:29;;;;;;;22.70;16.75;;;16.10;99.00;;;;;;4993000;28;20406;-67
2022/03/26 10:43:12;;;;;;;24.65;16.70;;;15.90;98.80;;;;;;4991790;28;20136;-66
2022/03/26 10:45:48;;;;;;;24.75;16.25;;;16.00;98.30;;;;;;4992839;28;20047;-66
2022/03/26 10:48:13;;;;;;;21.73;14.95;;;16.10;97.00;;;;;;4974358;28;20053;-67
2022/03/26 10:51:15;;;;;;;20.98;15.40;;;16.20;96.80;;;;;;4992427;28;20062;-68
2022/03/26 10:53:49;;;;;;;21.90;15.43;;;16.30;93.60;;;;;;4920151;28;20129;-67
2022/03/26 10:56:16;;;;;;;23.83;14.60;;;16.30;92.50;;;;;;4993544;28;20050;-67
2022/03/26 10:58:49;;;;;;;18.33;14.65;;;16.40;92.50;;;;;;5007013;28;20046;-67
2022/03/26 11:01:14;;;;;;;20.58;13.40;;;16.40;91.90;;;;;;4982717;28;20053;-67
2022/03/26 11:03:41;;;;;;;18.95;13.00;;;16.40;92.10;;;;;;4982567;28;20059;-67
2022/03/26 11:06:09;;;;;;;18.73;12.75;;;16.40;92.20;;;;;;4983661;28;20428;-68
2022/03/26 11:08:36;;;;;;;18.48;12.93;;;16.40;90.80;;;;;;4990889;28;20046;-67
2022/03/26 11:11:11;;;;;;;17.00;12.27;;;16.50;90.20;;;;;;4978631;28;20051;-69
2022/03/26 11:14:07;;;;;;;16.50;12.00;;;16.60;88.30;;;;;;4973366;28;20130;-67
2022/03/26 11:16:43;;;;;;;15.40;12.43;;;16.70;82.90;;;;;;4972352;28;20082;-67
2022/03/26 11:19:30;;;;;;;14.25;11.30;;;16.80;83.30;;;;;;4973704;28;20408;-68
2022/03/26 11:22:39;;;;;;;18.70;12.88;;;16.80;83.30;;;;;;4972654;28;20475;-67
2022/03/26 11:25:17;;;;;;;17.80;13.43;;;16.90;79.70;;;;;;4986895;28;20547;-67
2022/03/26 11:28:21;;;;;;;17.77;12.77;;;17.00;77.10;;;;;;4991478;28;20050;-67
2022/03/26 11:31:01;;;;;;;17.25;13.30;;;16.90;77.60;;;;;;4983833;28;20093;-67
2022/03/26 11:33:33;;;;;;;20.40;13.70;;;16.90;83.60;;;;;;4984655;28;20066;-67
2022/03/26 11:36:57;;;;;;;;;;;;;;;;;;;;;
2022/03/26 11:40:06;;;;;;;17.63;13.93;;;17.00;82.20;;;;;;4992286;28;20112;-67
2022/03/26 11:42:31;;;;;;;22.05;14.82;;;17.00;85.80;;;;;;5007743;28;20398;-67
2022/03/26 11:51:32;;;;;;;17.27;13.52;;;17.20;84.50;;;;;;4973526;28;20550;-67
2022/03/26 11:54:19;;;;;;;16.52;12.63;;;17.20;84.70;;;;;;4972274;28;20070;-68
2022/03/26 11:56:47;;;;;;;17.55;11.95;;;17.40;82.70;;;;;;4972134;28;20050;-67
2022/03/26 11:59:15;;;;;;;14.15;11.40;;;17.40;81.50;;;;;;4980319;28;20421;-68
2022/03/26 12:01:48;;;;;;;13.48;11.63;;;17.50;78.90;;;;;;4982405;28;20065;-67
2022/03/26 12:04:16;;;;;;;14.05;10.68;;;17.60;77.80;;;;;;4990683;28;20062;-67
2022/03/26 12:06:49;;;;;;;15.52;11.30;;;17.50;73.00;;;;;;4991901;28;20054;-67
2022/03/26 12:09:35;;;;;;;13.57;10.38;;;17.50;73.00;;;;;;4989546;28;20055;-67
2022/03/26 12:12:08;;;;;;;15.20;10.73;;;17.50;73.80;;;;;;4989061;28;20061;-67
2022/03/26 12:15:04;;;;;;;12.68;9.93;;;17.60;74.00;;;;;;5006573;28;20092;-67
2022/03/26 12:17:45;;;;;;;11.02;9.45;;;17.60;69.50;;;;;;5016822;28;20508;-68
2022/03/26 12:20:23;;;;;;;13.30;10.45;;;17.70;70.50;;;;;;5027081;28;20037;-67
2022/03/26 12:22:51;;;;;;;14.90;10.52;;;17.70;71.30;;;;;;5023012;28;20046;-67
2022/03/26 12:25:17;;;;;;;15.48;10.90;;;17.60;70.70;;;;;;5000219;28;20128;-68
2022/03/26 12:27:46;;;;;;;14.95;11.18;;;17.60;71.30;;;;;;4986745;28;20064;-68
2022/03/26 12:30:13;;;;;;;11.18;9.32;;;17.60;71.50;;;;;;5016988;28;20056;-68
2022/03/26 12:32:42;;;;;;;13.05;9.88;;;17.60;71.60;;;;;;5030598;28;20060;-67
2022/03/26 12:35:09;;;;;;;10.90;8.90;;;17.70;70.80;;;;;;5005385;28;20506;-67
2022/03/26 12:37:36;;;;;;;8.00;7.15;;;17.70;70.90;;;;;;5005268;28;20049;-69
2022/03/26 12:40:07;;;;;;;8.38;7.25;;;17.70;69.00;;;;;;5026965;28;20058;-68
2022/03/26 12:42:33;;;;;;;10.77;7.20;;;17.60;68.80;;;;;;4996392;28;20077;-67
2022/03/26 12:44:59;;;;;;;8.48;7.15;;;17.70;69.90;;;;;;5006243;28;20050;-67